createdAt,value
2017-07-26T00:00:10.350Z,14.00
2017-07-26T00:02:37.888Z,13.90
2017-07-26T00:05:05.447Z,13.90
2017-07-26T00:07:32.974Z,13.90
2017-07-26T00:10:00.527Z,14.00
2017-07-26T00:12:28.055Z,14.00
2017-07-26T00:14:55.622Z,14.00
2017-07-26T00:17:23.158Z,13.90
2017-07-26T00:19:50.739Z,13.90
2017-07-26T00:22:18.538Z,14.00
2017-07-26T00:24:46.095Z,14.00
2017-07-26T00:27:13.647Z,14.00
2017-07-26T00:29:41.236Z,13.90
2017-07-26T00:32:08.767Z,13.90
2017-07-26T00:34:36.461Z,14.00
2017-07-26T00:37:04.027Z,14.00
2017-07-26T00:39:31.582Z,14.10
2017-07-26T00:41:59.103Z,14.00
2017-07-26T00:44:26.642Z,14.00
2017-07-26T00:46:54.195Z,14.00
2017-07-26T00:49:21.722Z,14.00
2017-07-26T00:51:49.270Z,14.00
2017-07-26T00:54:16.803Z,14.00
2017-07-26T00:56:44.355Z,14.00
2017-07-26T00:59:11.959Z,14.00
2017-07-26T01:01:39.509Z,14.10
2017-07-26T01:04:07.035Z,14.10
2017-07-26T01:06:34.649Z,14.10
2017-07-26T01:09:02.174Z,14.00
2017-07-26T01:11:29.727Z,14.00
2017-07-26T01:13:57.294Z,14.00
2017-07-26T01:16:24.847Z,14.00
2017-07-26T01:18:52.370Z,14.00
2017-07-26T01:21:19.922Z,14.00
2017-07-26T01:23:48.218Z,14.00
2017-07-26T01:29:08.904Z,14.10
2017-07-26T01:31:36.463Z,14.00
2017-07-26T01:34:04.771Z,14.00
2017-07-26T01:36:32.326Z,14.00
2017-07-26T01:38:59.864Z,14.00
2017-07-26T01:41:28.204Z,14.00
2017-07-26T01:43:55.727Z,13.90
2017-07-26T01:46:23.283Z,14.00
2017-07-26T01:48:50.815Z,13.90
2017-07-26T01:51:18.364Z,14.00
2017-07-26T01:53:45.905Z,14.00
2017-07-26T01:56:13.432Z,14.00
2017-07-26T01:58:40.982Z,14.00
2017-07-26T02:01:08.511Z,14.00
2017-07-26T02:03:36.059Z,14.00
2017-07-26T02:06:03.588Z,14.00
2017-07-26T02:08:31.151Z,14.00
2017-07-26T02:10:58.682Z,14.00
2017-07-26T02:13:26.240Z,14.00
2017-07-26T02:15:53.772Z,14.10
2017-07-26T02:18:21.322Z,14.10
2017-07-26T02:20:48.854Z,14.10
2017-07-26T02:23:16.405Z,14.10
2017-07-26T02:25:43.933Z,14.10
2017-07-26T02:28:11.490Z,14.00
2017-07-26T02:30:39.027Z,14.00
2017-07-26T02:33:06.583Z,14.00
2017-07-26T02:35:34.107Z,14.00
2017-07-26T02:38:01.663Z,14.00
2017-07-26T02:40:29.194Z,13.90
2017-07-26T02:42:56.752Z,14.00
2017-07-26T02:45:24.287Z,14.00
2017-07-26T02:47:52.615Z,14.00
2017-07-26T02:50:20.152Z,14.00
2017-07-26T02:52:47.718Z,14.00
2017-07-26T02:55:15.246Z,14.00
2017-07-26T02:57:43.547Z,14.00
2017-07-26T03:00:11.107Z,14.00
2017-07-26T03:02:38.626Z,14.10
2017-07-26T03:05:06.191Z,14.10
2017-07-26T03:07:33.718Z,14.10
2017-07-26T03:10:01.275Z,14.00
2017-07-26T03:12:28.803Z,14.00
2017-07-26T03:14:56.364Z,14.10
2017-07-26T03:17:23.894Z,14.10
2017-07-26T03:19:51.448Z,14.10
2017-07-26T03:22:18.979Z,14.10
2017-07-26T03:24:46.538Z,14.00
2017-07-26T03:27:14.062Z,14.00
2017-07-26T03:29:41.622Z,14.00
2017-07-26T03:32:09.156Z,14.00
2017-07-26T03:34:37.495Z,14.00
2017-07-26T03:37:05.019Z,14.00
2017-07-26T03:39:32.571Z,14.10
2017-07-26T03:42:00.102Z,14.00
2017-07-26T03:44:27.659Z,14.00
2017-07-26T03:46:55.189Z,14.00
2017-07-26T03:49:22.742Z,14.00
2017-07-26T03:51:50.268Z,14.00
2017-07-26T03:54:17.832Z,14.00
2017-07-26T03:56:45.367Z,14.00
2017-07-26T03:59:12.899Z,14.00
2017-07-26T04:01:40.450Z,14.10
2017-07-26T04:04:07.982Z,14.10
2017-07-26T04:06:35.535Z,14.10
2017-07-26T04:09:03.058Z,14.20
2017-07-26T04:11:30.619Z,14.20
2017-07-26T04:13:58.146Z,14.10
2017-07-26T04:16:25.709Z,14.10
2017-07-26T04:18:53.229Z,14.10
2017-07-26T04:21:40.078Z,14.20
2017-07-26T04:24:07.613Z,14.10
2017-07-26T04:26:35.170Z,14.10
2017-07-26T04:29:02.707Z,14.10
2017-07-26T04:31:31.027Z,14.10
2017-07-26T04:33:58.554Z,14.10
2017-07-26T04:36:26.114Z,14.20
2017-07-26T04:38:53.643Z,14.10
2017-07-26T04:41:21.199Z,14.10
2017-07-26T04:43:48.731Z,14.10
2017-07-26T04:46:16.315Z,14.20
2017-07-26T04:48:43.852Z,14.10
2017-07-26T04:51:11.412Z,14.20
2017-07-26T04:53:38.939Z,14.20
2017-07-26T04:56:06.502Z,14.20
2017-07-26T04:58:34.030Z,14.20
2017-07-26T05:01:02.352Z,14.30
2017-07-26T05:03:29.882Z,14.30
2017-07-26T05:05:57.420Z,14.20
2017-07-26T05:08:24.978Z,14.10
2017-07-26T05:10:52.503Z,14.20
2017-07-26T05:13:20.059Z,14.20
2017-07-26T05:15:47.586Z,14.30
2017-07-26T05:18:15.151Z,14.30
2017-07-26T05:20:42.821Z,14.30
2017-07-26T05:23:10.508Z,14.40
2017-07-26T05:25:38.030Z,14.50
2017-07-26T05:28:05.579Z,14.60
2017-07-26T05:30:33.866Z,14.60
2017-07-26T05:33:01.423Z,14.60
2017-07-26T05:35:28.962Z,14.70
2017-07-26T05:37:57.285Z,14.80
2017-07-26T05:40:24.951Z,14.80
2017-07-26T05:42:52.505Z,15.10
2017-07-26T05:45:20.030Z,15.20
2017-07-26T05:47:48.345Z,15.10
2017-07-26T05:50:15.872Z,15.10
2017-07-26T05:52:44.195Z,15.00
2017-07-26T05:55:11.723Z,14.90
2017-07-26T05:57:39.281Z,14.90
2017-07-26T06:00:06.811Z,15.00
2017-07-26T06:02:34.371Z,15.00
2017-07-26T06:05:02.670Z,15.10
2017-07-26T06:07:30.206Z,15.10
2017-07-26T06:09:57.758Z,15.40
2017-07-26T06:12:25.286Z,15.30
2017-07-26T06:14:52.838Z,15.40
2017-07-26T06:17:20.366Z,15.40
2017-07-26T06:19:47.920Z,15.40
2017-07-26T06:22:16.216Z,15.20
2017-07-26T06:24:43.771Z,15.20
2017-07-26T06:27:11.304Z,15.10
2017-07-26T06:29:39.629Z,14.90
2017-07-26T06:32:07.186Z,14.90
2017-07-26T06:34:34.751Z,14.90
2017-07-26T06:37:02.284Z,15.00
2017-07-26T06:39:29.834Z,15.10
2017-07-26T06:41:58.140Z,15.70
2017-07-26T06:44:25.703Z,15.60
2017-07-26T06:46:53.234Z,15.70
2017-07-26T06:49:20.798Z,15.60
2017-07-26T06:51:48.333Z,15.60
2017-07-26T06:54:15.891Z,15.60
2017-07-26T06:56:44.186Z,15.80
2017-07-26T06:59:12.515Z,15.60
2017-07-26T07:01:40.048Z,15.60
2017-07-26T07:04:07.611Z,15.90
2017-07-26T07:06:35.142Z,16.10
2017-07-26T07:09:03.479Z,16.50
2017-07-26T07:11:31.001Z,16.50
2017-07-26T07:13:58.526Z,16.60
2017-07-26T07:16:26.857Z,16.30
2017-07-26T07:18:54.394Z,16.30
2017-07-26T07:21:21.950Z,16.20
2017-07-26T07:23:49.485Z,16.30
2017-07-26T07:26:17.811Z,16.40
2017-07-26T07:28:45.418Z,16.40
2017-07-26T07:31:12.974Z,16.50
2017-07-26T07:33:41.274Z,16.70
2017-07-26T07:36:08.835Z,16.70
2017-07-26T07:38:36.362Z,16.40
2017-07-26T07:41:03.918Z,16.80
2017-07-26T07:43:31.442Z,17.30
2017-07-26T07:45:59.003Z,17.40
2017-07-26T07:48:26.547Z,17.70
2017-07-26T07:50:54.195Z,17.70
2017-07-26T07:53:21.733Z,17.60
2017-07-26T07:55:50.056Z,18.10
2017-07-26T07:58:17.583Z,18.10
2017-07-26T08:00:45.139Z,17.70
2017-07-26T08:03:13.430Z,17.10
2017-07-26T08:05:40.975Z,17.10
2017-07-26T08:08:08.522Z,17.00
2017-07-26T08:10:36.072Z,17.10
2017-07-26T08:13:03.598Z,17.30
2017-07-26T08:15:31.132Z,17.50
2017-07-26T08:17:58.703Z,17.60
2017-07-26T08:20:26.235Z,17.30
2017-07-26T08:22:54.547Z,16.90
2017-07-26T08:25:22.075Z,16.90
2017-07-26T08:27:50.394Z,17.00
2017-07-26T08:30:17.919Z,17.00
2017-07-26T08:32:45.471Z,16.80
2017-07-26T08:35:13.762Z,16.60
2017-07-26T08:37:41.318Z,16.60
2017-07-26T08:40:08.851Z,16.40
2017-07-26T08:42:36.404Z,16.30
2017-07-26T08:45:03.938Z,16.50
2017-07-26T08:47:31.495Z,16.60
2017-07-26T08:49:59.022Z,16.80
2017-07-26T08:52:26.574Z,17.00
2017-07-26T08:54:54.093Z,17.10
2017-07-26T08:57:21.638Z,17.10
2017-07-26T08:59:49.172Z,17.30
2017-07-26T09:02:16.985Z,17.20
2017-07-26T09:04:44.515Z,17.30
2017-07-26T09:07:12.082Z,17.50
2017-07-26T09:09:39.618Z,17.20
2017-07-26T09:12:07.182Z,17.20
2017-07-26T09:14:34.707Z,17.10
2017-07-26T09:17:02.998Z,17.20
2017-07-26T09:19:30.554Z,17.30
2017-07-26T09:22:01.715Z,17.30
2017-07-26T09:24:31.110Z,17.40
2017-07-26T09:27:00.002Z,17.60
2017-07-26T09:29:29.741Z,17.50
2017-07-26T09:31:57.802Z,17.50
2017-07-26T09:34:28.586Z,17.20
2017-07-26T09:37:00.538Z,17.30
2017-07-26T09:39:31.764Z,17.30
2017-07-26T09:42:03.749Z,17.20
2017-07-26T09:44:34.985Z,17.10
2017-07-26T09:47:04.675Z,17.40
2017-07-26T09:49:32.961Z,17.30
2017-07-26T09:52:00.481Z,17.50
2017-07-26T09:54:28.027Z,18.30
2017-07-26T09:56:56.316Z,19.10
2017-07-26T09:59:23.865Z,19.10
2017-07-26T10:01:52.152Z,19.00
2017-07-26T10:04:19.787Z,19.00
2017-07-26T10:06:48.074Z,18.80
2017-07-26T10:09:16.393Z,19.20
2017-07-26T10:11:43.925Z,19.20
2017-07-26T10:14:11.462Z,19.00
2017-07-26T10:16:39.776Z,18.90
2017-07-26T10:19:07.327Z,18.90
2017-07-26T10:21:34.851Z,18.80
2017-07-26T10:24:02.399Z,18.80
2017-07-26T10:26:29.935Z,19.00
2017-07-26T10:28:58.671Z,19.30
2017-07-26T10:31:30.768Z,19.30
2017-07-26T10:34:01.964Z,19.30
2017-07-26T10:36:33.315Z,19.20
2017-07-26T10:39:02.657Z,19.60
2017-07-26T10:41:34.764Z,18.80
2017-07-26T10:44:03.413Z,18.80
2017-07-26T10:46:32.739Z,18.30
2017-07-26T10:49:04.023Z,18.20
2017-07-26T10:51:36.126Z,18.30
2017-07-26T10:54:06.152Z,18.20
2017-07-26T10:56:33.694Z,18.50
2017-07-26T10:59:01.223Z,18.60
2017-07-26T11:01:28.776Z,18.80
2017-07-26T11:03:56.302Z,19.10
2017-07-26T11:06:23.852Z,19.40
2017-07-26T11:08:51.370Z,19.50
2017-07-26T11:11:19.673Z,19.20
2017-07-26T11:13:47.213Z,19.20
2017-07-26T11:16:15.806Z,19.20
2017-07-26T11:18:43.336Z,19.20
2017-07-26T11:21:11.672Z,19.90
2017-07-26T11:23:39.209Z,19.90
2017-07-26T11:26:06.756Z,20.20
2017-07-26T11:28:35.042Z,19.90
2017-07-26T11:31:02.639Z,19.90
2017-07-26T11:33:30.164Z,19.50
2017-07-26T11:35:57.710Z,19.50
2017-07-26T11:38:25.242Z,19.70
2017-07-26T11:40:52.803Z,20.20
2017-07-26T11:43:20.323Z,20.10
2017-07-26T11:45:47.842Z,20.30
2017-07-26T11:48:15.392Z,20.40
2017-07-26T11:50:43.695Z,20.30
2017-07-26T11:53:11.246Z,20.20
2017-07-26T11:55:38.780Z,20.50
2017-07-26T11:58:06.347Z,20.60
2017-07-26T12:00:33.882Z,20.60
2017-07-26T12:03:01.432Z,20.60
2017-07-26T12:05:28.954Z,21.10
2017-07-26T12:07:56.509Z,20.80
2017-07-26T12:12:54.035Z,20.50
2017-07-26T12:15:21.554Z,20.40
2017-07-26T12:17:49.115Z,20.60
2017-07-26T12:20:16.637Z,20.50
2017-07-26T12:22:44.182Z,20.60
2017-07-26T12:25:11.698Z,20.60
2017-07-26T12:27:39.252Z,21.00
2017-07-26T12:30:06.832Z,21.10
2017-07-26T12:32:34.379Z,20.80
2017-07-26T12:35:01.903Z,20.90
2017-07-26T12:37:30.238Z,20.80
2017-07-26T12:39:57.759Z,20.80
2017-07-26T12:42:25.304Z,21.40
2017-07-26T12:44:53.602Z,21.90
2017-07-26T12:47:21.123Z,21.80
2017-07-26T12:49:49.450Z,21.90
2017-07-26T12:52:16.972Z,21.90
2017-07-26T12:54:45.300Z,22.10
2017-07-26T12:57:12.827Z,22.00
2017-07-26T12:59:40.379Z,21.70
2017-07-26T13:02:08.666Z,21.70
2017-07-26T13:04:36.215Z,21.80
2017-07-26T13:07:03.742Z,21.70
2017-07-26T13:09:31.287Z,21.40
2017-07-26T13:11:58.810Z,21.50
2017-07-26T13:14:26.349Z,21.50
2017-07-26T13:16:54.639Z,21.70
2017-07-26T13:19:22.180Z,21.70
2017-07-26T13:21:50.472Z,21.70
2017-07-26T13:24:18.010Z,21.70
2017-07-26T13:26:46.355Z,21.80
2017-07-26T13:29:13.899Z,21.80
2017-07-26T13:31:41.417Z,21.40
2017-07-26T13:34:09.064Z,21.20
2017-07-26T13:36:36.590Z,21.40
2017-07-26T13:39:04.137Z,21.50
2017-07-26T13:41:31.658Z,22.00
2017-07-26T13:43:59.229Z,22.40
2017-07-26T13:46:26.756Z,22.30
2017-07-26T13:48:54.278Z,22.70
2017-07-26T13:51:21.835Z,22.40
2017-07-26T13:53:49.354Z,22.60
2017-07-26T13:56:17.670Z,22.50
2017-07-26T13:58:45.195Z,22.40
2017-07-26T14:01:12.766Z,22.40
2017-07-26T14:03:40.295Z,22.40
2017-07-26T14:06:07.848Z,21.60
2017-07-26T14:08:35.367Z,21.90
2017-07-26T14:11:02.916Z,22.50
2017-07-26T14:13:30.445Z,23.00
2017-07-26T14:15:57.991Z,22.80
2017-07-26T14:18:25.510Z,22.40
2017-07-26T14:20:53.063Z,22.10
2017-07-26T14:23:20.581Z,22.00
2017-07-26T14:25:48.898Z,22.70
2017-07-26T14:28:16.414Z,22.70
2017-07-26T14:30:44.727Z,21.70
2017-07-26T14:33:12.255Z,21.70
2017-07-26T14:35:40.569Z,21.40
2017-07-26T14:38:08.095Z,21.40
2017-07-26T14:40:36.420Z,21.60
2017-07-26T14:43:03.939Z,21.60
2017-07-26T14:45:31.494Z,21.80
2017-07-26T14:47:59.783Z,21.90
2017-07-26T14:50:27.315Z,21.90
2017-07-26T14:52:55.627Z,22.20
2017-07-26T14:55:23.151Z,22.20
2017-07-26T14:57:50.694Z,22.40
2017-07-26T15:00:18.205Z,22.20
2017-07-26T15:02:45.755Z,22.00
2017-07-26T15:05:13.316Z,22.00
2017-07-26T15:07:40.868Z,22.40
2017-07-26T15:10:08.383Z,23.10
2017-07-26T15:12:35.934Z,22.70
2017-07-26T15:15:03.473Z,22.10
2017-07-26T15:17:31.027Z,22.40
2017-07-26T15:19:58.551Z,22.90
2017-07-26T15:22:27.185Z,22.70
2017-07-26T15:24:54.722Z,22.80
2017-07-26T15:27:22.279Z,22.80
2017-07-26T15:29:49.801Z,23.00
2017-07-26T15:32:17.347Z,22.30
2017-07-26T15:34:44.878Z,21.90
2017-07-26T15:37:12.434Z,21.80
2017-07-26T15:39:39.959Z,22.10
2017-07-26T15:42:08.274Z,22.00
2017-07-26T15:44:35.793Z,22.00
2017-07-26T15:47:04.114Z,22.00
2017-07-26T15:49:31.637Z,22.00
2017-07-26T15:51:59.168Z,22.00
2017-07-26T15:54:26.715Z,22.30
2017-07-26T15:56:54.226Z,22.80
2017-07-26T15:59:21.770Z,22.90
2017-07-26T16:01:50.067Z,23.10
2017-07-26T16:04:17.614Z,23.10
2017-07-26T16:06:45.142Z,22.30
2017-07-26T16:09:12.695Z,22.30
2017-07-26T16:11:40.211Z,22.30
2017-07-26T16:14:07.759Z,22.60
2017-07-26T16:16:35.280Z,22.60
2017-07-26T16:19:02.833Z,22.90
2017-07-26T16:21:30.359Z,23.10
2017-07-26T16:23:57.916Z,23.00
2017-07-26T16:26:25.444Z,22.90
2017-07-26T16:28:53.758Z,22.50
2017-07-26T16:31:21.282Z,22.40
2017-07-26T16:33:49.599Z,22.50
2017-07-26T16:36:17.126Z,22.50
2017-07-26T16:38:44.674Z,22.70
2017-07-26T16:41:12.962Z,22.80
2017-07-26T16:43:40.506Z,22.80
2017-07-26T16:46:08.794Z,23.40
2017-07-26T16:48:37.110Z,23.60
2017-07-26T16:51:04.635Z,23.60
2017-07-26T16:53:32.164Z,23.60
2017-07-26T16:55:59.716Z,24.40
2017-07-26T16:58:27.244Z,23.70
2017-07-26T17:00:54.791Z,23.10
2017-07-26T17:03:22.309Z,22.60
2017-07-26T17:05:50.627Z,22.60
2017-07-26T17:08:18.138Z,22.60
2017-07-26T17:10:45.674Z,22.20
2017-07-26T17:13:13.191Z,22.20
2017-07-26T17:15:40.747Z,22.60
2017-07-26T17:18:08.272Z,22.80
2017-07-26T17:20:35.819Z,23.20
2017-07-26T17:23:03.338Z,23.30
2017-07-26T17:25:30.890Z,23.00
2017-07-26T17:27:58.410Z,22.90
2017-07-26T17:30:25.963Z,22.50
2017-07-26T17:32:53.482Z,22.20
2017-07-26T17:35:21.026Z,22.10
2017-07-26T17:37:48.558Z,22.30
2017-07-26T17:40:16.887Z,23.00
2017-07-26T17:42:44.412Z,23.00
2017-07-26T17:45:12.720Z,22.90
2017-07-26T17:47:40.238Z,22.90
2017-07-26T17:50:07.801Z,23.00
2017-07-26T17:52:36.090Z,22.40
2017-07-26T17:55:03.618Z,22.40
2017-07-26T17:57:31.166Z,22.20
2017-07-26T17:59:58.689Z,21.90
2017-07-26T18:02:26.254Z,21.80
2017-07-26T18:04:53.796Z,21.70
2017-07-26T18:07:21.368Z,21.40
2017-07-26T18:09:48.909Z,21.20
2017-07-26T18:12:16.468Z,21.20
2017-07-26T18:14:43.990Z,21.20
2017-07-26T18:17:11.538Z,21.10
2017-07-26T18:19:39.070Z,21.00
2017-07-26T18:22:06.618Z,20.90
2017-07-26T18:24:34.179Z,20.70
2017-07-26T18:27:01.745Z,20.50
2017-07-26T18:29:29.279Z,20.50
2017-07-26T18:31:56.827Z,20.50
2017-07-26T18:34:25.131Z,20.50
2017-07-26T18:36:52.690Z,20.50
2017-07-26T18:39:20.219Z,20.50
2017-07-26T18:41:48.531Z,20.30
2017-07-26T18:44:16.068Z,20.30
2017-07-26T18:46:43.620Z,20.30
2017-07-26T18:49:11.919Z,20.40
2017-07-26T18:51:39.470Z,20.40
2017-07-26T18:54:07.006Z,20.30
2017-07-26T18:56:35.349Z,20.20
2017-07-26T18:59:02.878Z,20.20
2017-07-26T19:01:30.402Z,20.10
2017-07-26T19:03:57.950Z,20.00
2017-07-26T19:06:25.489Z,19.90
2017-07-26T19:08:53.045Z,19.70
2017-07-26T19:11:20.571Z,19.50
2017-07-26T19:13:48.126Z,19.40
2017-07-26T19:16:15.670Z,19.10
2017-07-26T19:18:43.984Z,18.80
2017-07-26T19:21:11.510Z,18.80
2017-07-26T19:23:39.084Z,18.70
2017-07-26T19:26:06.639Z,18.50
2017-07-26T19:28:34.195Z,18.40
2017-07-26T19:31:01.751Z,18.20
2017-07-26T19:33:29.332Z,18.10
2017-07-26T19:35:56.869Z,18.00
2017-07-26T19:38:25.209Z,17.80
2017-07-26T19:40:52.752Z,17.80
2017-07-26T19:43:20.330Z,17.70
2017-07-26T19:45:47.870Z,17.70
2017-07-26T19:48:15.443Z,17.60
2017-07-26T19:50:42.970Z,17.70
2017-07-26T19:53:10.533Z,17.70
2017-07-26T19:55:38.072Z,17.70
2017-07-26T19:58:05.634Z,17.70
2017-07-26T20:00:33.162Z,17.90
2017-07-26T20:03:00.696Z,17.80
2017-07-26T20:05:28.245Z,17.90
2017-07-26T20:07:55.783Z,17.90
2017-07-26T20:10:23.339Z,17.90
2017-07-26T20:12:50.867Z,17.80
2017-07-26T20:15:18.419Z,17.80
2017-07-26T20:17:45.958Z,17.70
2017-07-26T20:20:13.530Z,17.70
2017-07-26T20:22:41.054Z,17.70
2017-07-26T20:25:08.603Z,17.70
2017-07-26T20:27:36.136Z,17.70
2017-07-26T20:30:04.465Z,17.90
2017-07-26T20:32:31.992Z,17.80
2017-07-26T20:34:59.555Z,17.90
2017-07-26T20:37:27.083Z,17.90
2017-07-26T20:39:55.398Z,18.10
2017-07-26T20:42:22.930Z,18.10
2017-07-26T20:44:51.253Z,18.20
2017-07-26T20:47:18.791Z,18.20
2017-07-26T20:49:46.342Z,18.20
2017-07-26T20:52:13.866Z,18.30
2017-07-26T20:54:41.423Z,18.40
2017-07-26T20:57:08.948Z,18.40
2017-07-26T20:59:36.505Z,18.50
2017-07-26T21:02:04.030Z,18.50
2017-07-26T21:04:32.584Z,18.50
2017-07-26T21:07:00.932Z,18.50
2017-07-26T21:09:28.463Z,18.50
2017-07-26T21:11:56.034Z,18.50
2017-07-26T21:14:23.568Z,18.50
2017-07-26T21:16:51.932Z,18.40
2017-07-26T21:19:20.243Z,18.40
2017-07-26T21:21:47.799Z,18.40
2017-07-26T21:24:15.327Z,18.40
2017-07-26T21:26:42.915Z,18.40
2017-07-26T21:29:10.438Z,18.30
2017-07-26T21:31:38.282Z,18.40
2017-07-26T21:34:05.820Z,18.40
2017-07-26T21:36:33.374Z,18.50
2017-07-26T21:39:00.898Z,18.40
2017-07-26T21:41:29.235Z,18.40
2017-07-26T21:43:56.772Z,18.40
2017-07-26T21:46:24.324Z,18.40
2017-07-26T21:48:51.855Z,18.40
2017-07-26T21:51:20.179Z,18.40
2017-07-26T21:53:47.719Z,18.40
2017-07-26T21:56:15.283Z,18.40
2017-07-26T21:58:42.815Z,18.40
2017-07-26T22:01:11.130Z,18.30
2017-07-26T22:03:38.662Z,18.30
2017-07-26T22:06:06.211Z,18.30
2017-07-26T22:08:34.506Z,18.20
2017-07-26T22:11:02.035Z,18.20
2017-07-26T22:13:29.586Z,18.20
2017-07-26T22:15:57.132Z,18.20
2017-07-26T22:18:24.686Z,18.20
2017-07-26T22:20:52.217Z,18.20
2017-07-26T22:23:19.767Z,18.10
2017-07-26T22:25:47.295Z,18.10
2017-07-26T22:28:14.850Z,18.00
2017-07-26T22:51:22.558Z,17.90
2017-07-26T22:53:50.105Z,17.90
2017-07-26T22:56:17.639Z,17.90
2017-07-26T22:58:45.186Z,18.00
2017-07-26T23:01:13.479Z,18.00
2017-07-26T23:03:41.032Z,17.90
2017-07-26T23:06:08.559Z,17.90
2017-07-26T23:08:36.115Z,17.90
2017-07-26T23:11:03.637Z,17.90
2017-07-26T23:13:31.185Z,18.00
2017-07-26T23:15:58.716Z,17.90
2017-07-26T23:18:27.029Z,17.80
2017-07-26T23:20:54.559Z,17.80
2017-07-26T23:23:22.880Z,17.50
2017-07-26T23:25:50.410Z,17.50
2017-07-26T23:28:17.957Z,17.40
2017-07-26T23:30:46.248Z,17.20
2017-07-26T23:33:13.810Z,17.20
2017-07-26T23:35:41.338Z,17.20
2017-07-26T23:38:09.627Z,17.00
2017-07-26T23:40:37.958Z,16.80
2017-07-26T23:43:05.487Z,16.80
2017-07-26T23:45:33.038Z,16.80
2017-07-26T23:48:00.568Z,16.70
2017-07-26T23:50:28.134Z,16.70
2017-07-26T23:52:56.435Z,16.70
2017-07-26T23:55:23.982Z,16.70
2017-07-26T23:57:52.274Z,16.60
